sensor_id;sensor_type;location;lat;lon;timestamp;P1;durP1;ratioP1;P2;durP2;ratioP2
22219;SDS011;11279;48.364;10.904;2023-08-31T00:00:24;5.93;;;5.00;;
22219;SDS011;11279;48.364;10.904;2023-08-31T00:01:25;9.18;;;5.07;;
22219;SDS011;11279;48.364;10.904;2023-08-31T00:02:26;8.30;;;5.97;;
22219;SDS011;11279;48.364;10.904;2023-08-31T00:03:26;8.20;;;5.20;;
22219;SDS011;11279;48.364;10.904;2023-08-31T00:04:26;10.53;;;5.57;;
22219;SDS011;11279;48.364;10.904;2023-08-31T00:05:27;7.97;;;5.33;;
22219;SDS011;11279;48.364;10.904;2023-08-31T00:06:30;8.77;;;5.25;;
22219;SDS011;11279;48.364;10.904;2023-08-31T00:07:31;7.80;;;5.30;;
22219;SDS011;11279;48.364;10.904;2023-08-31T00:08:32;7.35;;;5.20;;
22219;SDS011;11279;48.364;10.904;2023-08-31T00:09:33;6.23;;;5.03;;
22219;SDS011;11279;48.364;10.904;2023-08-31T00:10:37;6.50;;;4.22;;
22219;SDS011;11279;48.364;10.904;2023-08-31T00:11:38;8.35;;;4.80;;
22219;SDS011;11279;48.364;10.904;2023-08-31T00:12:38;8.50;;;5.23;;
22219;SDS011;11279;48.364;10.904;2023-08-31T00:13:38;7.87;;;5.23;;
22219;SDS011;11279;48.364;10.904;2023-08-31T00:14:39;6.70;;;5.27;;
22219;SDS011;11279;48.364;10.904;2023-08-31T00:15:39;7.83;;;5.10;;
22219;SDS011;11279;48.364;10.904;2023-08-31T00:16:41;6.65;;;5.00;;
22219;SDS011;11279;48.364;10.904;2023-08-31T00:17:41;6.60;;;5.07;;
22219;SDS011;11279;48.364;10.904;2023-08-31T00:18:42;7.18;;;5.22;;
22219;SDS011;11279;48.364;10.904;2023-08-31T00:19:45;9.35;;;5.07;;
22219;SDS011;11279;48.364;10.904;2023-08-31T00:20:45;7.23;;;5.33;;
22219;SDS011;11279;48.364;10.904;2023-08-31T00:21:46;6.67;;;4.73;;
22219;SDS011;11279;48.364;10.904;2023-08-31T00:22:46;6.97;;;5.20;;
22219;SDS011;11279;48.364;10.904;2023-08-31T00:23:46;9.43;;;5.43;;
22219;SDS011;11279;48.364;10.904;2023-08-31T00:24:47;6.03;;;4.73;;
22219;SDS011;11279;48.364;10.904;2023-08-31T00:25:47;7.20;;;4.90;;
22219;SDS011;11279;48.364;10.904;2023-08-31T00:26:48;7.93;;;5.27;;
22219;SDS011;11279;48.364;10.904;2023-08-31T00:27:51;6.00;;;4.55;;
22219;SDS011;11279;48.364;10.904;2023-08-31T00:28:52;6.85;;;4.97;;
22219;SDS011;11279;48.364;10.904;2023-08-31T00:29:53;6.93;;;5.38;;
22219;SDS011;11279;48.364;10.904;2023-08-31T00:30:55;6.70;;;5.10;;
22219;SDS011;11279;48.364;10.904;2023-08-31T00:31:56;5.73;;;4.50;;
22219;SDS011;11279;48.364;10.904;2023-08-31T00:32:57;8.33;;;4.77;;
22219;SDS011;11279;48.364;10.904;2023-08-31T00:34:00;6.00;;;5.00;;
22219;SDS011;11279;48.364;10.904;2023-08-31T00:35:03;6.18;;;4.85;;
22219;SDS011;11279;48.364;10.904;2023-08-31T00:36:04;9.23;;;5.40;;
22219;SDS011;11279;48.364;10.904;2023-08-31T00:37:06;7.32;;;4.93;;
22219;SDS011;11279;48.364;10.904;2023-08-31T00:38:07;8.07;;;4.90;;
22219;SDS011;11279;48.364;10.904;2023-08-31T00:39:07;5.87;;;4.90;;
22219;SDS011;11279;48.364;10.904;2023-08-31T00:40:10;6.65;;;4.10;;
22219;SDS011;11279;48.364;10.904;2023-08-31T00:41:14;8.25;;;4.65;;
22219;SDS011;11279;48.364;10.904;2023-08-31T00:42:14;6.80;;;4.57;;
22219;SDS011;11279;48.364;10.904;2023-08-31T00:43:15;5.97;;;4.40;;
22219;SDS011;11279;48.364;10.904;2023-08-31T00:44:15;5.27;;;4.50;;
22219;SDS011;11279;48.364;10.904;2023-08-31T00:45:16;7.97;;;4.77;;
22219;SDS011;11279;48.364;10.904;2023-08-31T00:46:16;6.47;;;4.67;;
22219;SDS011;11279;48.364;10.904;2023-08-31T00:47:17;6.70;;;4.67;;
22219;SDS011;11279;48.364;10.904;2023-08-31T00:48:19;6.72;;;4.57;;
22219;SDS011;11279;48.364;10.904;2023-08-31T00:49:19;7.87;;;4.63;;
22219;SDS011;11279;48.364;10.904;2023-08-31T00:50:20;6.63;;;4.70;;
22219;SDS011;11279;48.364;10.904;2023-08-31T00:51:21;6.60;;;4.40;;
22219;SDS011;11279;48.364;10.904;2023-08-31T00:52:21;6.57;;;4.33;;
22219;SDS011;11279;48.364;10.904;2023-08-31T00:53:22;8.63;;;4.37;;
22219;SDS011;11279;48.364;10.904;2023-08-31T00:54:23;6.43;;;4.90;;
22219;SDS011;11279;48.364;10.904;2023-08-31T00:55:24;7.37;;;4.30;;
22219;SDS011;11279;48.364;10.904;2023-08-31T00:56:24;8.33;;;4.63;;
22219;SDS011;11279;48.364;10.904;2023-08-31T00:57:26;7.00;;;4.32;;
22219;SDS011;11279;48.364;10.904;2023-08-31T00:58:27;6.40;;;4.40;;
22219;SDS011;11279;48.364;10.904;2023-08-31T00:59:27;5.87;;;4.23;;
22219;SDS011;11279;48.364;10.904;2023-08-31T01:00:30;8.30;;;4.53;;
22219;SDS011;11279;48.364;10.904;2023-08-31T01:01:37;5.50;;;4.00;;
22219;SDS011;11279;48.364;10.904;2023-08-31T01:02:49;5.35;;;4.22;;
22219;SDS011;11279;48.364;10.904;2023-08-31T01:03:57;5.32;;;4.30;;
22219;SDS011;11279;48.364;10.904;2023-08-31T01:07:30;8.05;;;4.70;;
22219;SDS011;11279;48.364;10.904;2023-08-31T01:10:11;4.82;;;4.13;;
22219;SDS011;11279;48.364;10.904;2023-08-31T01:14:07;5.22;;;4.15;;
22219;SDS011;11279;48.364;10.904;2023-08-31T01:15:11;6.05;;;4.28;;
22219;SDS011;11279;48.364;10.904;2023-08-31T01:16:13;6.65;;;4.55;;
22219;SDS011;11279;48.364;10.904;2023-08-31T01:17:14;5.90;;;4.60;;
22219;SDS011;11279;48.364;10.904;2023-08-31T01:18:16;8.98;;;5.10;;
22219;SDS011;11279;48.364;10.904;2023-08-31T01:20:40;5.80;;;4.70;;
22219;SDS011;11279;48.364;10.904;2023-08-31T01:21:42;7.20;;;4.88;;
22219;SDS011;11279;48.364;10.904;2023-08-31T01:23:52;7.82;;;5.18;;
22219;SDS011;11279;48.364;10.904;2023-08-31T01:24:53;8.02;;;5.22;;
22219;SDS011;11279;48.364;10.904;2023-08-31T01:25:54;9.23;;;5.47;;
22219;SDS011;11279;48.364;10.904;2023-08-31T01:26:54;6.37;;;4.97;;
22219;SDS011;11279;48.364;10.904;2023-08-31T01:27:55;5.83;;;4.90;;
22219;SDS011;11279;48.364;10.904;2023-08-31T01:28:55;7.47;;;5.00;;
22219;SDS011;11279;48.364;10.904;2023-08-31T01:29:56;6.57;;;4.90;;
22219;SDS011;11279;48.364;10.904;2023-08-31T01:30:56;7.47;;;5.60;;
22219;SDS011;11279;48.364;10.904;2023-08-31T01:31:57;7.77;;;4.97;;
22219;SDS011;11279;48.364;10.904;2023-08-31T01:32:57;7.20;;;5.33;;
22219;SDS011;11279;48.364;10.904;2023-08-31T01:33:58;6.72;;;5.35;;
22219;SDS011;11279;48.364;10.904;2023-08-31T01:34:59;6.70;;;5.20;;
22219;SDS011;11279;48.364;10.904;2023-08-31T01:36:01;12.15;;;5.80;;
22219;SDS011;11279;48.364;10.904;2023-08-31T01:37:08;6.10;;;4.68;;
22219;SDS011;11279;48.364;10.904;2023-08-31T01:38:11;6.15;;;4.45;;
22219;SDS011;11279;48.364;10.904;2023-08-31T01:39:17;8.17;;;5.03;;
22219;SDS011;11279;48.364;10.904;2023-08-31T01:41:55;6.45;;;4.63;;
22219;SDS011;11279;48.364;10.904;2023-08-31T01:42:57;7.07;;;4.93;;
22219;SDS011;11279;48.364;10.904;2023-08-31T01:43:58;5.88;;;4.40;;
22219;SDS011;11279;48.364;10.904;2023-08-31T01:45:00;5.93;;;4.45;;
22219;SDS011;11279;48.364;10.904;2023-08-31T01:46:00;6.60;;;4.50;;
22219;SDS011;11279;48.364;10.904;2023-08-31T01:47:04;5.47;;;3.73;;
22219;SDS011;11279;48.364;10.904;2023-08-31T01:48:08;5.32;;;3.88;;
22219;SDS011;11279;48.364;10.904;2023-08-31T01:49:09;7.70;;;3.90;;
22219;SDS011;11279;48.364;10.904;2023-08-31T01:50:10;5.53;;;4.60;;
22219;SDS011;11279;48.364;10.904;2023-08-31T01:51:11;5.28;;;3.95;;
22219;SDS011;11279;48.364;10.904;2023-08-31T01:52:12;5.40;;;3.80;;
22219;SDS011;11279;48.364;10.904;2023-08-31T01:53:13;9.17;;;3.73;;
22219;SDS011;11279;48.364;10.904;2023-08-31T01:54:13;7.30;;;4.30;;
22219;SDS011;11279;48.364;10.904;2023-08-31T01:55:13;6.43;;;3.90;;
22219;SDS011;11279;48.364;10.904;2023-08-31T01:56:15;5.32;;;3.90;;
22219;SDS011;11279;48.364;10.904;2023-08-31T01:57:16;7.07;;;4.33;;
22219;SDS011;11279;48.364;10.904;2023-08-31T01:58:17;5.03;;;3.73;;
22219;SDS011;11279;48.364;10.904;2023-08-31T01:59:17;5.90;;;4.17;;
22219;SDS011;11279;48.364;10.904;2023-08-31T02:00:18;6.40;;;4.37;;
22219;SDS011;11279;48.364;10.904;2023-08-31T02:01:19;4.75;;;3.65;;
22219;SDS011;11279;48.364;10.904;2023-08-31T02:02:20;5.63;;;4.03;;
22219;SDS011;11279;48.364;10.904;2023-08-31T02:03:20;5.10;;;4.17;;
22219;SDS011;11279;48.364;10.904;2023-08-31T02:04:21;6.90;;;4.33;;
22219;SDS011;11279;48.364;10.904;2023-08-31T02:05:21;5.97;;;4.60;;
22219;SDS011;11279;48.364;10.904;2023-08-31T02:06:21;5.33;;;4.40;;
22219;SDS011;11279;48.364;10.904;2023-08-31T02:07:22;6.07;;;4.37;;
22219;SDS011;11279;48.364;10.904;2023-08-31T02:08:22;6.17;;;4.60;;
22219;SDS011;11279;48.364;10.904;2023-08-31T02:09:23;6.23;;;4.40;;
22219;SDS011;11279;48.364;10.904;2023-08-31T02:10:23;5.30;;;4.40;;
22219;SDS011;11279;48.364;10.904;2023-08-31T02:11:24;7.87;;;4.87;;
22219;SDS011;11279;48.364;10.904;2023-08-31T02:12:24;5.93;;;4.37;;
22219;SDS011;11279;48.364;10.904;2023-08-31T02:13:25;8.13;;;5.13;;
22219;SDS011;11279;48.364;10.904;2023-08-31T02:14:25;6.40;;;4.93;;
22219;SDS011;11279;48.364;10.904;2023-08-31T02:15:25;5.97;;;4.87;;
22219;SDS011;11279;48.364;10.904;2023-08-31T02:16:26;6.47;;;4.87;;
22219;SDS011;11279;48.364;10.904;2023-08-31T02:17:26;5.70;;;4.60;;
22219;SDS011;11279;48.364;10.904;2023-08-31T02:18:27;9.83;;;5.20;;
22219;SDS011;11279;48.364;10.904;2023-08-31T02:19:27;6.50;;;5.20;;
22219;SDS011;11279;48.364;10.904;2023-08-31T02:20:28;6.20;;;5.30;;
22219;SDS011;11279;48.364;10.904;2023-08-31T02:21:28;8.17;;;5.33;;
22219;SDS011;11279;48.364;10.904;2023-08-31T02:22:29;8.60;;;6.13;;
22219;SDS011;11279;48.364;10.904;2023-08-31T02:23:39;7.25;;;5.30;;
22219;SDS011;11279;48.364;10.904;2023-08-31T02:24:39;6.70;;;5.10;;
22219;SDS011;11279;48.364;10.904;2023-08-31T02:25:40;8.13;;;5.70;;
22219;SDS011;11279;48.364;10.904;2023-08-31T02:26:40;7.63;;;5.50;;
22219;SDS011;11279;48.364;10.904;2023-08-31T02:27:40;7.77;;;5.60;;
22219;SDS011;11279;48.364;10.904;2023-08-31T02:28:41;6.80;;;5.30;;
22219;SDS011;11279;48.364;10.904;2023-08-31T02:29:41;7.13;;;5.60;;
22219;SDS011;11279;48.364;10.904;2023-08-31T02:30:43;8.13;;;6.10;;
22219;SDS011;11279;48.364;10.904;2023-08-31T02:31:44;6.95;;;5.57;;
22219;SDS011;11279;48.364;10.904;2023-08-31T02:32:45;7.30;;;5.60;;
22219;SDS011;11279;48.364;10.904;2023-08-31T02:33:46;8.27;;;5.37;;
22219;SDS011;11279;48.364;10.904;2023-08-31T02:34:47;7.88;;;5.60;;
22219;SDS011;11279;48.364;10.904;2023-08-31T02:35:47;10.83;;;6.23;;
22219;SDS011;11279;48.364;10.904;2023-08-31T02:36:48;9.53;;;6.47;;
22219;SDS011;11279;48.364;10.904;2023-08-31T02:37:48;9.37;;;6.20;;
22219;SDS011;11279;48.364;10.904;2023-08-31T02:38:48;10.07;;;6.40;;
22219;SDS011;11279;48.364;10.904;2023-08-31T02:39:50;8.50;;;6.18;;
22219;SDS011;11279;48.364;10.904;2023-08-31T02:40:50;10.70;;;6.93;;
22219;SDS011;11279;48.364;10.904;2023-08-31T02:41:51;11.67;;;6.80;;
22219;SDS011;11279;48.364;10.904;2023-08-31T02:42:51;8.17;;;5.70;;
22219;SDS011;11279;48.364;10.904;2023-08-31T02:43:55;7.80;;;5.82;;
22219;SDS011;11279;48.364;10.904;2023-08-31T02:44:55;7.90;;;6.67;;
22219;SDS011;11279;48.364;10.904;2023-08-31T02:46:02;7.60;;;6.07;;
22219;SDS011;11279;48.364;10.904;2023-08-31T02:47:02;10.93;;;6.28;;
22219;SDS011;11279;48.364;10.904;2023-08-31T02:48:03;8.43;;;6.77;;
22219;SDS011;11279;48.364;10.904;2023-08-31T02:49:04;9.63;;;6.75;;
22219;SDS011;11279;48.364;10.904;2023-08-31T02:50:10;14.40;;;6.85;;
22219;SDS011;11279;48.364;10.904;2023-08-31T02:51:11;8.27;;;6.83;;
22219;SDS011;11279;48.364;10.904;2023-08-31T02:52:11;10.93;;;7.20;;
22219;SDS011;11279;48.364;10.904;2023-08-31T02:53:12;9.97;;;6.50;;
22219;SDS011;11279;48.364;10.904;2023-08-31T02:54:13;8.53;;;6.73;;
22219;SDS011;11279;48.364;10.904;2023-08-31T02:55:13;9.67;;;6.70;;
22219;SDS011;11279;48.364;10.904;2023-08-31T02:56:13;8.73;;;6.27;;
22219;SDS011;11279;48.364;10.904;2023-08-31T02:57:14;11.10;;;7.03;;
22219;SDS011;11279;48.364;10.904;2023-08-31T02:58:19;8.73;;;6.68;;
22219;SDS011;11279;48.364;10.904;2023-08-31T02:59:19;9.73;;;5.87;;
22219;SDS011;11279;48.364;10.904;2023-08-31T03:00:20;9.83;;;6.40;;
22219;SDS011;11279;48.364;10.904;2023-08-31T03:01:25;7.55;;;5.88;;
22219;SDS011;11279;48.364;10.904;2023-08-31T03:02:29;8.98;;;6.80;;
22219;SDS011;11279;48.364;10.904;2023-08-31T03:03:34;7.90;;;6.47;;
22219;SDS011;11279;48.364;10.904;2023-08-31T03:04:35;8.47;;;6.23;;
22219;SDS011;11279;48.364;10.904;2023-08-31T03:05:36;9.13;;;6.23;;
22219;SDS011;11279;48.364;10.904;2023-08-31T03:06:36;8.10;;;6.03;;
22219;SDS011;11279;48.364;10.904;2023-08-31T03:07:46;11.02;;;6.40;;
22219;SDS011;11279;48.364;10.904;2023-08-31T03:08:50;9.10;;;5.75;;
22219;SDS011;11279;48.364;10.904;2023-08-31T03:09:50;9.63;;;6.37;;
22219;SDS011;11279;48.364;10.904;2023-08-31T03:10:51;8.23;;;6.10;;
22219;SDS011;11279;48.364;10.904;2023-08-31T03:11:53;9.02;;;6.03;;
22219;SDS011;11279;48.364;10.904;2023-08-31T03:12:54;7.35;;;5.53;;
22219;SDS011;11279;48.364;10.904;2023-08-31T03:13:55;9.07;;;6.17;;
22219;SDS011;11279;48.364;10.904;2023-08-31T03:14:55;9.73;;;5.67;;
22219;SDS011;11279;48.364;10.904;2023-08-31T03:15:56;8.03;;;5.70;;
22219;SDS011;11279;48.364;10.904;2023-08-31T03:16:56;8.87;;;5.40;;
22219;SDS011;11279;48.364;10.904;2023-08-31T03:17:57;7.83;;;6.00;;
22219;SDS011;11279;48.364;10.904;2023-08-31T03:18:58;9.37;;;6.10;;
22219;SDS011;11279;48.364;10.904;2023-08-31T03:19:58;8.33;;;5.50;;
22219;SDS011;11279;48.364;10.904;2023-08-31T03:20:59;8.77;;;5.93;;
22219;SDS011;11279;48.364;10.904;2023-08-31T03:21:59;8.60;;;5.90;;
22219;SDS011;11279;48.364;10.904;2023-08-31T03:22:59;8.57;;;5.53;;
22219;SDS011;11279;48.364;10.904;2023-08-31T03:24:00;12.27;;;5.90;;
22219;SDS011;11279;48.364;10.904;2023-08-31T03:25:00;7.17;;;5.60;;
22219;SDS011;11279;48.364;10.904;2023-08-31T03:26:06;9.60;;;5.90;;
22219;SDS011;11279;48.364;10.904;2023-08-31T03:27:07;9.27;;;6.13;;
22219;SDS011;11279;48.364;10.904;2023-08-31T03:28:07;10.00;;;5.37;;
22219;SDS011;11279;48.364;10.904;2023-08-31T03:29:08;8.57;;;5.97;;
22219;SDS011;11279;48.364;10.904;2023-08-31T03:30:09;7.97;;;5.13;;
22219;SDS011;11279;48.364;10.904;2023-08-31T03:31:10;10.18;;;5.28;;
22219;SDS011;11279;48.364;10.904;2023-08-31T03:32:10;7.10;;;5.07;;
22219;SDS011;11279;48.364;10.904;2023-08-31T03:33:11;8.30;;;6.17;;
22219;SDS011;11279;48.364;10.904;2023-08-31T03:34:12;8.18;;;5.68;;
22219;SDS011;11279;48.364;10.904;2023-08-31T03:35:12;7.77;;;5.13;;
22219;SDS011;11279;48.364;10.904;2023-08-31T03:36:13;7.80;;;5.83;;
22219;SDS011;11279;48.364;10.904;2023-08-31T03:37:13;7.20;;;5.57;;
22219;SDS011;11279;48.364;10.904;2023-08-31T03:38:14;7.53;;;5.33;;
22219;SDS011;11279;48.364;10.904;2023-08-31T03:39:14;6.43;;;5.20;;
22219;SDS011;11279;48.364;10.904;2023-08-31T03:40:15;7.83;;;5.63;;
22219;SDS011;11279;48.364;10.904;2023-08-31T03:41:15;7.53;;;5.33;;
22219;SDS011;11279;48.364;10.904;2023-08-31T03:42:15;8.03;;;5.77;;
22219;SDS011;11279;48.364;10.904;2023-08-31T03:43:16;8.60;;;5.77;;
22219;SDS011;11279;48.364;10.904;2023-08-31T03:44:16;6.50;;;5.23;;
22219;SDS011;11279;48.364;10.904;2023-08-31T03:45:17;8.87;;;5.73;;
22219;SDS011;11279;48.364;10.904;2023-08-31T03:46:18;8.05;;;5.43;;
22219;SDS011;11279;48.364;10.904;2023-08-31T03:47:18;8.83;;;5.57;;
22219;SDS011;11279;48.364;10.904;2023-08-31T03:48:19;8.90;;;5.57;;
22219;SDS011;11279;48.364;10.904;2023-08-31T03:49:19;7.77;;;5.27;;
22219;SDS011;11279;48.364;10.904;2023-08-31T03:50:20;8.47;;;5.73;;
22219;SDS011;11279;48.364;10.904;2023-08-31T03:51:20;6.63;;;5.20;;
22219;SDS011;11279;48.364;10.904;2023-08-31T03:52:21;9.20;;;6.07;;
22219;SDS011;11279;48.364;10.904;2023-08-31T03:53:21;8.93;;;6.20;;
22219;SDS011;11279;48.364;10.904;2023-08-31T03:54:21;10.93;;;6.40;;
22219;SDS011;11279;48.364;10.904;2023-08-31T03:55:22;8.30;;;5.70;;
22219;SDS011;11279;48.364;10.904;2023-08-31T03:56:23;8.73;;;5.67;;
22219;SDS011;11279;48.364;10.904;2023-08-31T03:57:23;8.73;;;5.57;;
22219;SDS011;11279;48.364;10.904;2023-08-31T03:58:24;9.87;;;5.83;;
22219;SDS011;11279;48.364;10.904;2023-08-31T03:59:24;8.47;;;5.43;;
22219;SDS011;11279;48.364;10.904;2023-08-31T04:00:25;8.80;;;5.57;;
22219;SDS011;11279;48.364;10.904;2023-08-31T04:01:25;9.20;;;6.13;;
22219;SDS011;11279;48.364;10.904;2023-08-31T04:02:26;8.17;;;5.47;;
22219;SDS011;11279;48.364;10.904;2023-08-31T04:03:27;8.23;;;5.63;;
22219;SDS011;11279;48.364;10.904;2023-08-31T04:04:27;9.60;;;6.67;;
22219;SDS011;11279;48.364;10.904;2023-08-31T04:05:28;10.00;;;6.17;;
22219;SDS011;11279;48.364;10.904;2023-08-31T04:06:32;8.55;;;5.78;;
22219;SDS011;11279;48.364;10.904;2023-08-31T04:07:33;7.40;;;5.27;;
22219;SDS011;11279;48.364;10.904;2023-08-31T04:08:35;9.07;;;5.88;;
22219;SDS011;11279;48.364;10.904;2023-08-31T04:09:35;8.27;;;5.67;;
22219;SDS011;11279;48.364;10.904;2023-08-31T04:10:35;10.30;;;5.57;;
22219;SDS011;11279;48.364;10.904;2023-08-31T04:11:36;6.43;;;5.13;;
22219;SDS011;11279;48.364;10.904;2023-08-31T04:12:36;9.87;;;6.30;;
22219;SDS011;11279;48.364;10.904;2023-08-31T04:13:37;7.97;;;5.37;;
22219;SDS011;11279;48.364;10.904;2023-08-31T04:14:37;7.73;;;5.13;;
22219;SDS011;11279;48.364;10.904;2023-08-31T04:15:38;9.77;;;6.07;;
22219;SDS011;11279;48.364;10.904;2023-08-31T04:16:38;11.10;;;5.93;;
22219;SDS011;11279;48.364;10.904;2023-08-31T04:17:39;9.73;;;5.33;;
22219;SDS011;11279;48.364;10.904;2023-08-31T04:18:39;11.73;;;5.40;;
22219;SDS011;11279;48.364;10.904;2023-08-31T04:19:40;10.50;;;6.03;;
22219;SDS011;11279;48.364;10.904;2023-08-31T04:20:47;8.40;;;5.70;;
22219;SDS011;11279;48.364;10.904;2023-08-31T04:22:15;7.82;;;5.55;;
22219;SDS011;11279;48.364;10.904;2023-08-31T04:23:15;8.80;;;5.30;;
22219;SDS011;11279;48.364;10.904;2023-08-31T04:24:16;6.37;;;5.17;;
22219;SDS011;11279;48.364;10.904;2023-08-31T04:25:16;8.30;;;5.20;;
22219;SDS011;11279;48.364;10.904;2023-08-31T04:26:17;9.47;;;5.00;;
22219;SDS011;11279;48.364;10.904;2023-08-31T04:27:17;7.10;;;5.50;;
22219;SDS011;11279;48.364;10.904;2023-08-31T04:28:18;7.20;;;5.20;;
22219;SDS011;11279;48.364;10.904;2023-08-31T04:29:18;10.67;;;5.17;;
22219;SDS011;11279;48.364;10.904;2023-08-31T04:30:18;9.07;;;5.10;;
22219;SDS011;11279;48.364;10.904;2023-08-31T04:31:19;7.47;;;4.37;;
22219;SDS011;11279;48.364;10.904;2023-08-31T04:32:19;6.97;;;4.63;;
22219;SDS011;11279;48.364;10.904;2023-08-31T04:33:20;5.97;;;4.87;;
22219;SDS011;11279;48.364;10.904;2023-08-31T04:34:20;6.30;;;4.43;;
22219;SDS011;11279;48.364;10.904;2023-08-31T04:35:21;9.30;;;4.80;;
22219;SDS011;11279;48.364;10.904;2023-08-31T04:36:21;7.50;;;4.40;;
22219;SDS011;11279;48.364;10.904;2023-08-31T04:37:22;7.63;;;4.20;;
22219;SDS011;11279;48.364;10.904;2023-08-31T04:38:22;8.30;;;4.40;;
22219;SDS011;11279;48.364;10.904;2023-08-31T04:39:23;6.57;;;4.10;;
22219;SDS011;11279;48.364;10.904;2023-08-31T04:40:23;5.73;;;4.20;;
22219;SDS011;11279;48.364;10.904;2023-08-31T04:41:27;7.85;;;4.05;;
22219;SDS011;11279;48.364;10.904;2023-08-31T04:42:27;6.37;;;4.30;;
22219;SDS011;11279;48.364;10.904;2023-08-31T04:43:28;5.80;;;4.30;;
22219;SDS011;11279;48.364;10.904;2023-08-31T04:44:29;6.17;;;4.50;;
22219;SDS011;11279;48.364;10.904;2023-08-31T04:45:29;8.27;;;4.50;;
22219;SDS011;11279;48.364;10.904;2023-08-31T04:46:30;6.90;;;4.28;;
22219;SDS011;11279;48.364;10.904;2023-08-31T04:47:31;7.33;;;4.57;;
22219;SDS011;11279;48.364;10.904;2023-08-31T04:48:31;8.33;;;4.53;;
22219;SDS011;11279;48.364;10.904;2023-08-31T04:49:32;7.57;;;4.90;;
22219;SDS011;11279;48.364;10.904;2023-08-31T04:50:32;9.50;;;5.20;;
22219;SDS011;11279;48.364;10.904;2023-08-31T04:51:36;7.97;;;4.60;;
22219;SDS011;11279;48.364;10.904;2023-08-31T04:52:39;7.38;;;4.22;;
22219;SDS011;11279;48.364;10.904;2023-08-31T04:53:39;10.07;;;4.87;;
22219;SDS011;11279;48.364;10.904;2023-08-31T04:54:40;9.10;;;4.73;;
22219;SDS011;11279;48.364;10.904;2023-08-31T04:55:40;9.50;;;4.70;;
22219;SDS011;11279;48.364;10.904;2023-08-31T04:56:41;10.20;;;4.60;;
22219;SDS011;11279;48.364;10.904;2023-08-31T04:57:41;7.93;;;4.77;;
22219;SDS011;11279;48.364;10.904;2023-08-31T04:58:41;7.47;;;4.50;;
22219;SDS011;11279;48.364;10.904;2023-08-31T04:59:42;7.93;;;4.37;;
22219;SDS011;11279;48.364;10.904;2023-08-31T05:00:42;7.40;;;4.60;;
22219;SDS011;11279;48.364;10.904;2023-08-31T05:01:44;6.45;;;3.80;;
22219;SDS011;11279;48.364;10.904;2023-08-31T05:02:44;6.33;;;3.97;;
22219;SDS011;11279;48.364;10.904;2023-08-31T05:03:45;7.80;;;4.10;;
22219;SDS011;11279;48.364;10.904;2023-08-31T05:04:45;6.23;;;3.77;;
22219;SDS011;11279;48.364;10.904;2023-08-31T05:05:46;5.50;;;4.03;;
22219;SDS011;11279;48.364;10.904;2023-08-31T05:06:46;6.13;;;3.63;;
22219;SDS011;11279;48.364;10.904;2023-08-31T05:07:47;5.67;;;3.63;;
22219;SDS011;11279;48.364;10.904;2023-08-31T05:08:47;6.43;;;3.90;;
22219;SDS011;11279;48.364;10.904;2023-08-31T05:09:48;6.57;;;3.30;;
22219;SDS011;11279;48.364;10.904;2023-08-31T05:10:50;7.75;;;3.70;;
22219;SDS011;11279;48.364;10.904;2023-08-31T05:11:50;9.27;;;4.07;;
22219;SDS011;11279;48.364;10.904;2023-08-31T05:12:51;6.60;;;3.70;;
22219;SDS011;11279;48.364;10.904;2023-08-31T05:13:51;8.17;;;3.60;;
22219;SDS011;11279;48.364;10.904;2023-08-31T05:14:52;6.83;;;3.33;;
22219;SDS011;11279;48.364;10.904;2023-08-31T05:15:52;6.77;;;3.40;;
22219;SDS011;11279;48.364;10.904;2023-08-31T05:16:52;11.73;;;4.10;;
22219;SDS011;11279;48.364;10.904;2023-08-31T05:17:53;6.43;;;3.37;;
22219;SDS011;11279;48.364;10.904;2023-08-31T05:18:54;5.50;;;3.40;;
22219;SDS011;11279;48.364;10.904;2023-08-31T05:19:54;7.73;;;3.47;;
22219;SDS011;11279;48.364;10.904;2023-08-31T05:20:55;6.93;;;3.33;;
22219;SDS011;11279;48.364;10.904;2023-08-31T05:21:55;7.60;;;3.80;;
22219;SDS011;11279;48.364;10.904;2023-08-31T05:22:56;7.50;;;3.77;;
22219;SDS011;11279;48.364;10.904;2023-08-31T05:23:56;5.40;;;3.73;;
22219;SDS011;11279;48.364;10.904;2023-08-31T05:24:56;6.97;;;3.90;;
22219;SDS011;11279;48.364;10.904;2023-08-31T05:25:57;6.13;;;3.87;;
22219;SDS011;11279;48.364;10.904;2023-08-31T05:26:58;5.57;;;4.03;;
22219;SDS011;11279;48.364;10.904;2023-08-31T05:27:58;6.17;;;4.03;;
22219;SDS011;11279;48.364;10.904;2023-08-31T05:28:59;7.20;;;4.87;;
22219;SDS011;11279;48.364;10.904;2023-08-31T05:30:02;7.20;;;4.05;;
22219;SDS011;11279;48.364;10.904;2023-08-31T05:31:03;5.17;;;3.97;;
22219;SDS011;11279;48.364;10.904;2023-08-31T05:32:04;7.70;;;4.10;;
22219;SDS011;11279;48.364;10.904;2023-08-31T05:33:04;5.13;;;3.77;;
22219;SDS011;11279;48.364;10.904;2023-08-31T05:34:05;5.67;;;3.77;;
22219;SDS011;11279;48.364;10.904;2023-08-31T05:35:05;6.67;;;3.77;;
22219;SDS011;11279;48.364;10.904;2023-08-31T05:36:07;5.78;;;3.45;;
22219;SDS011;11279;48.364;10.904;2023-08-31T05:37:07;6.23;;;3.80;;
22219;SDS011;11279;48.364;10.904;2023-08-31T05:38:07;7.67;;;4.20;;
22219;SDS011;11279;48.364;10.904;2023-08-31T05:39:08;6.37;;;3.67;;
22219;SDS011;11279;48.364;10.904;2023-08-31T05:40:09;6.17;;;4.10;;
22219;SDS011;11279;48.364;10.904;2023-08-31T05:41:10;8.48;;;3.78;;
22219;SDS011;11279;48.364;10.904;2023-08-31T05:42:11;5.30;;;3.80;;
22219;SDS011;11279;48.364;10.904;2023-08-31T05:43:12;7.50;;;3.60;;
22219;SDS011;11279;48.364;10.904;2023-08-31T05:44:13;4.82;;;3.47;;
22219;SDS011;11279;48.364;10.904;2023-08-31T05:45:14;7.33;;;3.87;;
22219;SDS011;11279;48.364;10.904;2023-08-31T05:46:15;6.93;;;3.92;;
22219;SDS011;11279;48.364;10.904;2023-08-31T05:47:15;7.97;;;3.57;;
22219;SDS011;11279;48.364;10.904;2023-08-31T05:48:16;5.57;;;3.63;;
22219;SDS011;11279;48.364;10.904;2023-08-31T05:49:16;7.47;;;3.87;;
22219;SDS011;11279;48.364;10.904;2023-08-31T05:50:16;9.03;;;3.37;;
22219;SDS011;11279;48.364;10.904;2023-08-31T05:51:17;5.40;;;3.33;;
22219;SDS011;11279;48.364;10.904;2023-08-31T05:52:17;6.70;;;3.40;;
22219;SDS011;11279;48.364;10.904;2023-08-31T05:53:18;5.87;;;3.67;;
22219;SDS011;11279;48.364;10.904;2023-08-31T05:54:18;4.07;;;3.17;;
22219;SDS011;11279;48.364;10.904;2023-08-31T05:55:19;7.10;;;3.80;;
22219;SDS011;11279;48.364;10.904;2023-08-31T05:56:19;7.60;;;3.60;;
22219;SDS011;11279;48.364;10.904;2023-08-31T05:57:20;7.30;;;3.40;;
22219;SDS011;11279;48.364;10.904;2023-08-31T05:58:23;5.68;;;3.40;;
22219;SDS011;11279;48.364;10.904;2023-08-31T05:59:23;6.70;;;3.70;;
22219;SDS011;11279;48.364;10.904;2023-08-31T06:00:24;7.77;;;4.00;;
22219;SDS011;11279;48.364;10.904;2023-08-31T06:01:24;6.27;;;3.43;;
22219;SDS011;11279;48.364;10.904;2023-08-31T06:02:24;9.67;;;3.53;;
22219;SDS011;11279;48.364;10.904;2023-08-31T06:03:25;6.30;;;3.60;;
22219;SDS011;11279;48.364;10.904;2023-08-31T06:04:25;9.43;;;3.63;;
22219;SDS011;11279;48.364;10.904;2023-08-31T06:05:26;6.20;;;3.60;;
22219;SDS011;11279;48.364;10.904;2023-08-31T06:06:29;6.65;;;3.25;;
22219;SDS011;11279;48.364;10.904;2023-08-31T06:07:29;7.27;;;3.70;;
22219;SDS011;11279;48.364;10.904;2023-08-31T06:08:30;5.10;;;3.20;;
22219;SDS011;11279;48.364;10.904;2023-08-31T06:09:30;5.27;;;3.13;;
22219;SDS011;11279;48.364;10.904;2023-08-31T06:10:31;7.40;;;2.77;;
22219;SDS011;11279;48.364;10.904;2023-08-31T06:11:32;8.53;;;3.23;;
22219;SDS011;11279;48.364;10.904;2023-08-31T06:12:32;8.00;;;3.33;;
22219;SDS011;11279;48.364;10.904;2023-08-31T06:13:33;7.47;;;3.60;;